Time;durP1;ratioP1;P1;durP2;ratioP2;P2;SDS_P1;SDS_P2;PMS_P1;PMS_P2;Temp;Humidity;BMP_temperature;BMP_pressure;BME280_temperature;BME280_humidity;BME280_pressure;Samples;Min_cycle;Max_cycle;Signal;HPM_P1;HPM_P2
2024/01/11 00:02:14;;;;;;;44.50;20.13;;;-1.60;99.90;;;;;;5047636;28;20393;-72
2024/01/11 00:04:40;;;;;;;44.00;20.55;;;-1.70;99.90;;;;;;5044532;28;20359;-71
2024/01/11 00:07:06;;;;;;;47.97;22.00;;;-1.70;99.90;;;;;;5049996;28;20037;-72
2024/01/11 00:09:32;;;;;;;48.40;21.67;;;-1.70;99.90;;;;;;5044968;28;20508;-72
2024/01/11 00:11:57;;;;;;;48.63;20.88;;;-1.70;99.90;;;;;;5039836;28;20017;-72
2024/01/11 00:14:23;;;;;;;50.00;22.38;;;-1.70;99.90;;;;;;5049717;28;20527;-72
2024/01/11 00:16:49;;;;;;;43.75;20.88;;;-1.70;99.90;;;;;;5046960;28;20051;-72
2024/01/11 00:19:14;;;;;;;50.00;22.90;;;-1.70;99.90;;;;;;5045298;28;20037;-72
2024/01/11 00:21:40;;;;;;;45.58;22.77;;;-1.70;99.90;;;;;;5038923;28;20076;-72
2024/01/11 00:24:06;;;;;;;49.67;22.63;;;-1.70;99.90;;;;;;5041993;28;20034;-72
2024/01/11 00:26:31;;;;;;;49.22;22.65;;;-1.70;99.90;;;;;;5054004;28;20492;-72
2024/01/11 00:28:57;;;;;;;50.55;22.00;;;-1.70;99.90;;;;;;5050102;28;20100;-72
2024/01/11 00:31:23;;;;;;;48.08;22.20;;;-1.80;99.90;;;;;;5038749;28;20024;-72
2024/01/11 00:33:49;;;;;;;47.08;22.05;;;-1.80;99.90;;;;;;5044285;28;20033;-72
2024/01/11 00:36:19;;;;;;;55.83;23.17;;;-1.80;99.90;;;;;;5044022;28;20109;-72
2024/01/11 00:38:45;;;;;;;42.58;21.80;;;-1.80;99.90;;;;;;5044386;28;20060;-72
2024/01/11 00:41:11;;;;;;;55.58;23.67;;;-1.70;99.90;;;;;;5044578;28;20699;-72
2024/01/11 00:43:37;;;;;;;46.03;23.70;;;-1.80;99.90;;;;;;5040604;28;20618;-72
2024/01/11 00:46:03;;;;;;;54.15;23.05;;;-1.90;99.90;;;;;;5050346;28;20056;-72
2024/01/11 00:48:28;;;;;;;55.25;23.58;;;-1.80;99.90;;;;;;5043073;28;20032;-72
2024/01/11 00:50:54;;;;;;;47.75;22.50;;;-1.80;99.90;;;;;;5044860;28;20029;-72
2024/01/11 00:53:20;;;;;;;50.78;21.23;;;-1.80;99.90;;;;;;5045998;28;20106;-72
2024/01/11 00:55:46;;;;;;;51.40;22.48;;;-1.80;99.90;;;;;;5048380;28;20017;-72
2024/01/11 00:58:11;;;;;;;52.60;23.77;;;-1.80;99.90;;;;;;5047571;28;20048;-72
2024/01/11 01:00:37;;;;;;;45.78;22.77;;;-1.80;99.90;;;;;;5041393;28;20123;-72
2024/01/11 01:03:03;;;;;;;49.72;22.65;;;-1.90;99.90;;;;;;5044094;28;20036;-72
2024/01/11 01:05:29;;;;;;;61.53;25.05;;;-1.80;99.90;;;;;;5046649;28;20052;-72
2024/01/11 01:07:54;;;;;;;52.15;25.02;;;-1.80;99.90;;;;;;5047471;28;20033;-72
2024/01/11 01:10:20;;;;;;;52.97;23.65;;;-1.80;99.90;;;;;;5040431;28;20032;-72
2024/01/11 01:12:46;;;;;;;54.42;23.95;;;-1.80;99.90;;;;;;5046776;28;20429;-72
2024/01/11 01:15:12;;;;;;;50.50;24.33;;;-1.80;99.90;;;;;;5040820;28;20031;-72
2024/01/11 01:17:38;;;;;;;52.47;24.85;;;-1.80;99.90;;;;;;5040547;28;20394;-72
2024/01/11 01:20:04;;;;;;;56.53;24.85;;;-1.80;99.90;;;;;;5043745;28;20040;-72
2024/01/11 01:22:30;;;;;;;52.33;25.05;;;-1.80;99.90;;;;;;5038832;28;20121;-72
2024/01/11 01:24:55;;;;;;;56.13;26.17;;;-1.80;99.90;;;;;;5042459;28;20478;-72
2024/01/11 01:27:21;;;;;;;57.95;24.63;;;-1.80;99.90;;;;;;5049090;28;20363;-72
2024/01/11 01:29:47;;;;;;;53.40;24.63;;;-1.80;99.90;;;;;;5043946;28;20727;-72
2024/01/11 01:32:12;;;;;;;48.60;23.63;;;-1.80;99.90;;;;;;5040803;28;20562;-72
2024/01/11 01:34:38;;;;;;;54.75;26.15;;;-1.80;99.90;;;;;;5047278;28;20512;-72
2024/01/11 01:37:04;;;;;;;52.88;24.60;;;-1.90;99.90;;;;;;5047919;28;20037;-72
2024/01/11 01:39:29;;;;;;;52.47;25.35;;;-1.90;99.90;;;;;;5045230;28;20044;-72
2024/01/11 01:41:55;;;;;;;55.35;26.42;;;-1.90;99.90;;;;;;5045702;28;20080;-72
2024/01/11 01:44:21;;;;;;;58.75;25.85;;;-1.90;99.90;;;;;;5041280;28;20470;-72
2024/01/11 01:46:48;;;;;;;58.78;26.13;;;-1.90;99.90;;;;;;5043397;28;20386;-72
2024/01/11 01:49:14;;;;;;;54.13;23.80;;;-1.90;99.90;;;;;;5043086;28;20120;-72
2024/01/11 01:51:40;;;;;;;57.33;25.77;;;-1.90;99.90;;;;;;5052315;28;20044;-72
2024/01/11 01:54:06;;;;;;;53.97;24.10;;;-1.90;99.90;;;;;;5047138;28;20025;-72
2024/01/11 01:56:32;;;;;;;50.42;24.83;;;-2.00;99.90;;;;;;5046588;28;20465;-72
2024/01/11 01:59:00;;;;;;;57.67;24.77;;;-1.90;99.90;;;;;;5043273;28;20037;-72
2024/01/11 02:01:27;;;;;;;51.30;24.38;;;-1.90;99.90;;;;;;5043507;28;20043;-72
2024/01/11 02:03:54;;;;;;;51.33;23.90;;;-1.90;99.90;;;;;;5040015;28;20063;-72
2024/01/11 02:06:23;;;;;;;58.42;25.00;;;-1.90;99.90;;;;;;5051999;28;20120;-72
2024/01/11 02:08:51;;;;;;;49.55;22.92;;;-1.90;99.90;;;;;;5045487;28;20499;-72
2024/01/11 02:11:18;;;;;;;56.25;23.42;;;-1.90;99.90;;;;;;5042834;28;20025;-72
2024/01/11 02:13:45;;;;;;;54.13;24.52;;;-1.90;99.90;;;;;;5046690;28;20033;-72
2024/01/11 02:16:13;;;;;;;53.72;24.05;;;-1.90;99.90;;;;;;5045876;28;20064;-72
2024/01/11 02:18:39;;;;;;;54.92;24.42;;;-1.90;99.90;;;;;;5040872;28;20037;-72
2024/01/11 02:21:08;;;;;;;53.97;24.20;;;-2.00;99.90;;;;;;5042008;28;20397;-72
2024/01/11 02:23:45;;;;;;;55.03;24.65;;;-2.00;99.90;;;;;;5048562;28;20075;-72
2024/01/11 02:26:12;;;;;;;55.42;24.38;;;-2.00;99.90;;;;;;5041583;28;20021;-72
2024/01/11 02:28:37;;;;;;;57.38;25.50;;;-2.00;99.90;;;;;;5048506;28;20044;-72
2024/01/11 02:31:03;;;;;;;54.78;25.08;;;-2.00;99.90;;;;;;5046599;28;20470;-72
2024/01/11 02:33:29;;;;;;;54.10;25.20;;;-2.10;99.90;;;;;;5046389;28;20502;-72
2024/01/11 02:35:55;;;;;;;57.05;25.23;;;-2.10;99.90;;;;;;5042196;28;20021;-72
2024/01/11 02:38:21;;;;;;;55.47;23.73;;;-2.00;99.90;;;;;;5042473;28;20651;-72
2024/01/11 02:40:48;;;;;;;53.53;25.58;;;-2.00;99.90;;;;;;5051605;28;20033;-72
2024/01/11 02:43:13;;;;;;;54.08;24.77;;;-2.00;99.90;;;;;;5049220;28;20037;-72
2024/01/11 02:45:39;;;;;;;54.42;24.73;;;-2.00;99.90;;;;;;5052123;28;20033;-72
2024/01/11 02:48:05;;;;;;;54.97;24.77;;;-2.00;99.90;;;;;;5042812;28;20729;-72
2024/01/11 02:50:31;;;;;;;64.95;26.60;;;-2.00;99.90;;;;;;5043800;28;20036;-72
2024/01/11 02:52:56;;;;;;;60.13;27.02;;;-2.00;99.90;;;;;;5048106;28;20060;-72
2024/01/11 02:55:22;;;;;;;56.40;23.90;;;-2.00;99.90;;;;;;5046849;28;20084;-72
2024/01/11 02:57:48;;;;;;;55.60;25.27;;;-2.00;99.90;;;;;;5046035;28;20550;-72
2024/01/11 03:00:14;;;;;;;59.58;25.23;;;-2.00;99.90;;;;;;5045863;28;20540;-72
2024/01/11 03:02:39;;;;;;;60.35;25.02;;;-2.10;99.90;;;;;;5050374;28;20041;-72
2024/01/11 03:05:05;;;;;;;59.47;25.08;;;-2.10;99.90;;;;;;5044264;28;20068;-72
2024/01/11 03:07:32;;;;;;;58.42;26.02;;;-2.10;99.90;;;;;;5044661;28;20116;-72
2024/01/11 03:09:57;;;;;;;55.85;25.80;;;-2.10;99.90;;;;;;5050620;28;20028;-72
2024/01/11 03:12:25;;;;;;;62.88;26.20;;;-2.20;99.90;;;;;;5055239;28;20028;-72
2024/01/11 03:14:51;;;;;;;62.08;25.98;;;-2.20;99.90;;;;;;5050125;28;20017;-72
2024/01/11 03:17:17;;;;;;;56.45;25.25;;;-2.20;99.90;;;;;;5044489;28;20390;-72
2024/01/11 03:19:43;;;;;;;59.75;26.88;;;-2.30;99.90;;;;;;5043982;28;20486;-72
2024/01/11 03:22:08;;;;;;;60.00;25.20;;;-2.30;99.90;;;;;;5038669;28;20445;-72
2024/01/11 03:24:41;;;;;;;55.05;26.20;;;-2.20;99.90;;;;;;5048502;28;20108;-72
2024/01/11 03:27:06;;;;;;;55.92;24.95;;;-2.20;99.90;;;;;;5047028;28;20021;-72
2024/01/11 03:29:32;;;;;;;61.63;26.08;;;-2.30;99.90;;;;;;5043891;28;20116;-72
2024/01/11 03:31:58;;;;;;;58.92;24.85;;;-2.30;99.90;;;;;;5047944;28;20467;-72
2024/01/11 03:34:23;;;;;;;54.30;24.88;;;-2.30;99.90;;;;;;5050408;28;20026;-72
2024/01/11 03:36:49;;;;;;;57.58;25.25;;;-2.40;99.90;;;;;;5051866;28;20470;-72
2024/01/11 03:39:15;;;;;;;55.50;26.35;;;-2.30;99.90;;;;;;5046331;28;20387;-72
2024/01/11 03:41:47;;;;;;;57.95;26.42;;;-2.30;99.90;;;;;;5048390;28;20033;-72
2024/01/11 03:44:13;;;;;;;64.18;25.58;;;-2.40;99.90;;;;;;5052429;28;20021;-72
2024/01/11 03:46:39;;;;;;;57.40;26.67;;;-2.40;99.90;;;;;;5047066;28;20477;-72
2024/01/11 03:49:04;;;;;;;62.33;27.52;;;-2.30;99.90;;;;;;5047786;28;20065;-72
2024/01/11 03:51:30;;;;;;;62.25;27.10;;;-2.30;99.90;;;;;;5046864;28;20042;-72
2024/01/11 03:53:56;;;;;;;61.08;28.08;;;-2.40;99.90;;;;;;5051858;28;20064;-72
2024/01/11 03:56:21;;;;;;;57.42;28.58;;;-2.40;99.90;;;;;;5046254;28;20417;-71
2024/01/11 03:58:47;;;;;;;59.17;27.00;;;-2.40;99.90;;;;;;5044526;28;20441;-71
2024/01/11 04:01:13;;;;;;;59.88;26.80;;;-2.40;99.90;;;;;;5041340;28;20034;-72
2024/01/11 04:03:38;;;;;;;62.42;28.65;;;-2.50;99.90;;;;;;5048029;28;20033;-72
2024/01/11 04:06:05;;;;;;;63.35;26.67;;;-2.50;99.90;;;;;;5044773;28;20025;-72
2024/01/11 04:08:30;;;;;;;61.47;27.27;;;-2.50;99.90;;;;;;5054068;28;20032;-72
2024/01/11 04:10:56;;;;;;;60.00;26.77;;;-2.50;99.90;;;;;;5045498;28;20032;-72
2024/01/11 04:13:22;;;;;;;62.00;27.38;;;-2.50;99.90;;;;;;5046965;28;20465;-72
2024/01/11 04:15:47;;;;;;;60.20;27.45;;;-2.50;99.90;;;;;;5048500;28;20017;-72
2024/01/11 04:18:14;;;;;;;59.53;27.25;;;-2.50;99.90;;;;;;5047255;28;20124;-72
2024/01/11 04:20:39;;;;;;;59.88;28.27;;;-2.50;99.90;;;;;;5042175;28;20100;-72
2024/01/11 04:23:05;;;;;;;58.25;24.05;;;-2.60;99.90;;;;;;5043342;28;20100;-72
2024/01/11 04:25:31;;;;;;;59.67;25.85;;;-2.50;99.90;;;;;;5052901;28;20050;-72
2024/01/11 04:27:56;;;;;;;62.03;25.40;;;-2.50;99.90;;;;;;5041854;28;20032;-72
2024/01/11 04:30:22;;;;;;;59.38;25.85;;;-2.60;99.90;;;;;;5048706;28;20029;-72
2024/01/11 04:32:48;;;;;;;60.72;24.92;;;-2.60;99.90;;;;;;5049142;28;20522;-72
2024/01/11 04:35:13;;;;;;;65.75;26.75;;;-2.50;99.90;;;;;;5040186;28;20024;-72
2024/01/11 04:37:39;;;;;;;52.33;24.98;;;-2.50;99.90;;;;;;5041137;28;20036;-71
2024/01/11 04:40:07;;;;;;;57.45;25.58;;;-2.60;99.90;;;;;;5048147;28;20103;-72
2024/01/11 04:42:33;;;;;;;56.88;24.55;;;-2.60;99.90;;;;;;5049054;28;20032;-72
2024/01/11 04:44:58;;;;;;;63.38;25.98;;;-2.60;99.90;;;;;;5046803;28;20441;-72
2024/01/11 04:47:24;;;;;;;62.03;27.42;;;-2.60;99.90;;;;;;5046193;28;20411;-72
2024/01/11 04:49:50;;;;;;;61.20;27.60;;;-2.60;99.90;;;;;;5044673;28;20033;-72
2024/01/11 04:52:16;;;;;;;64.05;28.95;;;-2.60;99.90;;;;;;5043008;28;20052;-72
2024/01/11 04:54:41;;;;;;;58.35;27.40;;;-2.70;99.90;;;;;;5044081;28;20033;-72
2024/01/11 04:57:07;;;;;;;66.13;26.90;;;-2.70;99.90;;;;;;5046146;28;20478;-71
2024/01/11 04:59:33;;;;;;;59.53;27.48;;;-2.80;99.90;;;;;;5042619;28;20050;-71
2024/01/11 05:01:58;;;;;;;61.33;26.40;;;-2.70;99.90;;;;;;5044966;28;20064;-71
2024/01/11 05:04:24;;;;;;;66.78;26.50;;;-2.80;99.90;;;;;;5048690;28;20410;-72
2024/01/11 05:06:51;;;;;;;57.70;26.38;;;-2.80;99.90;;;;;;5043653;28;20030;-71
2024/01/11 05:09:17;;;;;;;70.15;28.48;;;-2.80;99.90;;;;;;5038592;28;20446;-71
2024/01/11 05:11:42;;;;;;;65.57;28.05;;;-2.70;99.90;;;;;;5042039;28;20052;-71
2024/01/11 05:14:08;;;;;;;68.70;28.58;;;-2.80;99.90;;;;;;5048788;28;20044;-72
2024/01/11 05:16:35;;;;;;;66.30;29.80;;;-2.80;99.90;;;;;;5040179;28;20437;-71
2024/01/11 05:19:01;;;;;;;68.75;31.27;;;-2.80;99.90;;;;;;5041171;28;20041;-72
2024/01/11 05:21:27;;;;;;;66.40;29.15;;;-2.80;99.90;;;;;;5042465;28;20082;-71
2024/01/11 05:23:53;;;;;;;68.45;28.67;;;-2.80;99.90;;;;;;5044236;28;20021;-71
2024/01/11 05:26:19;;;;;;;70.55;29.48;;;-2.80;99.90;;;;;;5046863;28;20030;-72
2024/01/11 05:28:45;;;;;;;70.65;30.48;;;-2.80;99.90;;;;;;5052290;28;20013;-71
2024/01/11 05:31:12;;;;;;;67.03;29.27;;;-2.80;99.90;;;;;;5039123;28;20078;-71
2024/01/11 05:33:39;;;;;;;60.88;28.67;;;-2.80;99.90;;;;;;5045694;28;20043;-71
2024/01/11 05:36:05;;;;;;;65.03;29.88;;;-2.80;99.90;;;;;;5044125;28;20418;-72
2024/01/11 05:38:30;;;;;;;63.50;29.05;;;-2.90;99.90;;;;;;5041501;28;20037;-72
2024/01/11 05:40:56;;;;;;;64.50;28.88;;;-2.80;99.90;;;;;;5039472;28;20074;-71
2024/01/11 05:43:23;;;;;;;65.90;28.48;;;-2.80;99.90;;;;;;5039639;28;20040;-72
2024/01/11 05:45:50;;;;;;;70.10;29.65;;;-2.80;99.90;;;;;;5041529;28;20025;-72
2024/01/11 05:48:17;;;;;;;61.53;26.95;;;-2.80;99.90;;;;;;5042713;28;20059;-72
2024/01/11 05:50:46;;;;;;;63.60;25.92;;;-2.80;99.90;;;;;;5040201;28;20030;-71
2024/01/11 05:53:12;;;;;;;66.97;28.95;;;-2.90;99.90;;;;;;5044377;28;20022;-71
2024/01/11 05:55:39;;;;;;;64.82;27.10;;;-2.90;99.90;;;;;;5038380;28;20021;-71
2024/01/11 05:58:04;;;;;;;63.65;27.98;;;-2.90;99.90;;;;;;5049456;28;20588;-71
2024/01/11 06:00:30;;;;;;;61.85;26.35;;;-2.90;99.90;;;;;;5045866;28;20017;-72
2024/01/11 06:02:56;;;;;;;63.97;26.08;;;-2.90;99.90;;;;;;5039712;28;20485;-71
2024/01/11 06:05:21;;;;;;;61.08;26.83;;;-2.90;99.90;;;;;;5042308;28;20028;-71
2024/01/11 06:07:47;;;;;;;62.53;26.58;;;-3.00;99.90;;;;;;5047215;28;20445;-71
2024/01/11 06:10:14;;;;;;;60.83;25.80;;;-2.90;99.90;;;;;;5046242;28;20028;-71
2024/01/11 06:12:41;;;;;;;62.78;26.42;;;-3.00;99.90;;;;;;5044255;28;20071;-71
2024/01/11 06:15:07;;;;;;;68.32;28.13;;;-2.90;99.90;;;;;;5048755;28;20104;-71
2024/01/11 06:17:33;;;;;;;65.82;28.20;;;-2.90;99.90;;;;;;5043408;28;20076;-72
2024/01/11 06:19:58;;;;;;;60.13;26.88;;;-3.00;99.90;;;;;;5045423;28;20498;-72
2024/01/11 06:22:24;;;;;;;65.80;27.15;;;-3.00;99.90;;;;;;5045355;28;20025;-71
2024/01/11 06:24:50;;;;;;;67.88;28.90;;;-3.00;99.90;;;;;;5047589;28;20074;-72
2024/01/11 06:27:16;;;;;;;61.85;26.80;;;-3.10;99.90;;;;;;5041523;28;20052;-72
2024/01/11 06:29:41;;;;;;;62.20;26.40;;;-3.20;99.90;;;;;;5046161;28;20158;-71
2024/01/11 06:32:07;;;;;;;67.72;28.42;;;-3.20;99.90;;;;;;5043236;28;20021;-71
2024/01/11 06:34:35;;;;;;;67.10;29.30;;;-3.20;99.90;;;;;;5044907;28;20398;-71
2024/01/11 06:37:02;;;;;;;64.57;27.70;;;-3.20;99.90;;;;;;5047971;28;20163;-72
2024/01/11 06:39:29;;;;;;;62.50;25.85;;;-3.20;99.90;;;;;;5043843;28;20086;-71
2024/01/11 06:41:55;;;;;;;59.92;25.77;;;-3.20;99.90;;;;;;5047388;28;20091;-71
2024/01/11 06:44:21;;;;;;;63.28;28.73;;;-3.20;99.90;;;;;;5041674;28;20079;-72
2024/01/11 06:46:47;;;;;;;62.65;26.95;;;-3.20;99.90;;;;;;5041851;28;20017;-72
2024/01/11 06:49:12;;;;;;;67.78;28.30;;;-3.20;99.90;;;;;;5047350;28;20029;-71
2024/01/11 06:51:39;;;;;;;64.07;27.88;;;-3.20;99.90;;;;;;5042603;28;20013;-72
2024/01/11 06:54:05;;;;;;;66.72;28.15;;;-3.20;99.90;;;;;;5047501;28;20394;-71
2024/01/11 06:56:30;;;;;;;69.60;28.45;;;-3.20;99.90;;;;;;5041850;28;20117;-71
2024/01/11 06:58:56;;;;;;;60.28;25.45;;;-3.30;99.90;;;;;;5042225;28;20120;-71
2024/01/11 07:01:22;;;;;;;59.55;26.67;;;-3.30;99.90;;;;;;5043130;28;20021;-71
2024/01/11 07:03:49;;;;;;;56.25;25.73;;;-3.20;99.90;;;;;;5043023;28;20467;-71
2024/01/11 07:06:15;;;;;;;67.88;26.05;;;-3.20;99.90;;;;;;5046586;28;20426;-71
2024/01/11 07:08:41;;;;;;;66.03;27.60;;;-3.20;99.90;;;;;;5039651;28;20033;-71
2024/01/11 07:11:07;;;;;;;67.57;27.60;;;-3.30;99.90;;;;;;5046771;28;20071;-70
2024/01/11 07:13:33;;;;;;;66.53;27.95;;;-3.30;99.90;;;;;;5046562;28;20025;-71
2024/01/11 07:15:59;;;;;;;68.28;28.13;;;-3.20;99.90;;;;;;5045072;28;20106;-71
2024/01/11 07:18:25;;;;;;;64.22;26.17;;;-3.40;99.90;;;;;;5049010;28;20045;-71
2024/01/11 07:20:52;;;;;;;61.83;25.85;;;-3.30;99.90;;;;;;5047581;28;20035;-71
2024/01/11 07:23:18;;;;;;;61.10;26.38;;;-3.40;99.90;;;;;;5047482;28;20084;-71
2024/01/11 07:25:44;;;;;;;63.08;26.83;;;-3.40;99.90;;;;;;5042137;28;20033;-71
2024/01/11 07:28:09;;;;;;;59.40;26.17;;;-3.40;99.90;;;;;;5041272;28;20065;-71
2024/01/11 07:30:35;;;;;;;60.88;26.50;;;-3.40;99.90;;;;;;5043420;28;20037;-71
2024/01/11 07:33:01;;;;;;;57.42;24.80;;;-3.40;99.90;;;;;;5043950;28;20018;-71
2024/01/11 07:35:27;;;;;;;63.92;26.02;;;-3.40;99.90;;;;;;5043592;28;20098;-71
2024/01/11 07:37:54;;;;;;;65.18;26.65;;;-3.40;99.90;;;;;;5044449;28;20033;-71
2024/01/11 07:40:19;;;;;;;66.60;25.98;;;-3.40;99.90;;;;;;5042231;28;20037;-71
2024/01/11 07:42:46;;;;;;;66.97;28.55;;;-3.40;99.90;;;;;;5047597;28;20136;-71
2024/01/11 07:45:11;;;;;;;66.38;28.80;;;-3.40;99.90;;;;;;5041831;28;20142;-71
2024/01/11 07:47:38;;;;;;;65.70;28.60;;;-3.40;99.90;;;;;;5046604;28;20148;-71
2024/01/11 07:50:06;;;;;;;62.30;27.70;;;-3.40;99.90;;;;;;5046155;28;20136;-70
2024/01/11 07:52:32;;;;;;;63.55;28.73;;;-3.40;99.90;;;;;;5050356;28;20021;-70
2024/01/11 07:55:06;;;;;;;71.63;28.98;;;-3.30;99.90;;;;;;5051441;28;20030;-71
2024/01/11 07:57:32;;;;;;;66.70;27.92;;;-3.40;99.90;;;;;;5040331;28;20021;-70
2024/01/11 07:59:59;;;;;;;59.58;26.45;;;-3.40;99.90;;;;;;5042111;28;20057;-70
2024/01/11 08:02:25;;;;;;;63.10;27.50;;;-3.50;99.90;;;;;;5045554;28;20421;-70
2024/01/11 08:04:51;;;;;;;62.60;26.10;;;-3.40;99.90;;;;;;5029592;28;20033;-71
2024/01/11 08:07:16;;;;;;;61.58;25.85;;;-3.50;99.90;;;;;;5007124;28;20107;-71
2024/01/11 08:09:45;;;;;;;64.28;26.77;;;-3.50;99.90;;;;;;5031358;28;20055;-70
2024/01/11 08:12:13;;;;;;;63.13;27.15;;;-3.40;99.90;;;;;;5034444;28;20065;-70
2024/01/11 08:14:39;;;;;;;64.38;27.58;;;-3.40;99.90;;;;;;5033900;28;20025;-70
2024/01/11 08:17:05;;;;;;;66.07;29.58;;;-3.40;99.90;;;;;;5033585;28;20030;-70
2024/01/11 08:19:32;;;;;;;63.38;29.10;;;-3.40;99.90;;;;;;5032993;28;20055;-70
2024/01/11 08:21:58;;;;;;;67.18;29.70;;;-3.40;99.90;;;;;;5030594;28;20025;-70
2024/01/11 08:24:24;;;;;;;63.95;30.08;;;-3.50;99.90;;;;;;5028302;28;20167;-70
2024/01/11 08:26:51;;;;;;;65.72;28.55;;;-3.50;99.90;;;;;;5033925;28;20029;-70
2024/01/11 08:29:19;;;;;;;62.75;26.73;;;-3.50;99.90;;;;;;5035633;28;20060;-71
2024/01/11 08:31:45;;;;;;;65.88;27.65;;;-3.40;99.90;;;;;;5037279;28;20025;-71
2024/01/11 08:34:11;;;;;;;70.03;28.88;;;-3.40;99.90;;;;;;5038346;28;20025;-71
2024/01/11 08:36:38;;;;;;;69.15;28.70;;;-3.40;99.90;;;;;;5033929;28;20039;-71
2024/01/11 08:39:12;;;;;;;66.93;27.02;;;-3.30;99.90;;;;;;5033725;28;20507;-71
2024/01/11 08:41:38;;;;;;;59.13;26.75;;;-3.30;99.90;;;;;;5035141;28;20151;-71
2024/01/11 08:44:07;;;;;;;59.92;27.55;;;-3.20;99.90;;;;;;5032017;28;20534;-71
2024/01/11 08:46:33;;;;;;;61.05;27.38;;;-3.30;99.90;;;;;;5033660;28;20017;-71
2024/01/11 08:49:03;;;;;;;65.80;27.00;;;-3.20;99.90;;;;;;5031977;28;20118;-71
2024/01/11 08:51:34;;;;;;;64.45;26.00;;;-3.20;99.90;;;;;;5034304;28;20403;-71
2024/01/11 08:54:01;;;;;;;62.60;26.00;;;-3.10;99.90;;;;;;5031748;28;20052;-71
2024/01/11 08:56:27;;;;;;;59.72;24.48;;;-3.20;99.90;;;;;;5032995;28;20029;-71
2024/01/11 08:58:53;;;;;;;66.18;26.70;;;-3.10;99.90;;;;;;5032960;28;20174;-71
2024/01/11 09:01:19;;;;;;;59.50;26.73;;;-3.20;99.90;;;;;;5033727;28;20100;-71
2024/01/11 09:03:47;;;;;;;56.03;27.13;;;-3.20;99.90;;;;;;5034350;28;20060;-71
2024/01/11 09:06:13;;;;;;;59.58;24.88;;;-3.20;99.90;;;;;;5031456;28;20017;-71
2024/01/11 09:08:41;;;;;;;61.90;26.40;;;-3.20;99.90;;;;;;5034380;28;20427;-71
2024/01/11 09:11:06;;;;;;;59.70;26.40;;;-3.20;99.90;;;;;;5035768;28;20021;-71
2024/01/11 09:13:32;;;;;;;59.70;27.90;;;-3.10;99.90;;;;;;5031645;28;20103;-71
2024/01/11 09:15:58;;;;;;;63.78;28.60;;;-3.10;99.90;;;;;;5031043;28;20032;-71
2024/01/11 09:18:24;;;;;;;66.15;30.70;;;-3.00;99.90;;;;;;5034775;28;20486;-71
2024/01/11 09:20:49;;;;;;;59.97;26.27;;;-3.00;99.90;;;;;;5034093;28;20025;-71
2024/01/11 09:23:16;;;;;;;59.17;26.40;;;-2.90;99.90;;;;;;5033369;28;20028;-71
2024/01/11 09:25:42;;;;;;;61.75;27.52;;;-2.90;99.90;;;;;;5031795;28;20462;-71
2024/01/11 09:28:07;;;;;;;60.60;27.38;;;-2.80;99.90;;;;;;5027010;28;20040;-71
2024/01/11 09:30:33;;;;;;;66.55;29.08;;;-2.80;99.90;;;;;;5030639;28;20442;-71
2024/01/11 09:32:59;;;;;;;60.75;28.17;;;-2.60;99.90;;;;;;5036031;28;20029;-71
2024/01/11 09:35:25;;;;;;;59.88;25.92;;;-2.60;99.90;;;;;;5037302;28;20029;-71
2024/01/11 09:37:51;;;;;;;56.85;25.92;;;-2.50;99.90;;;;;;5036066;28;20029;-71
2024/01/11 09:40:18;;;;;;;58.28;24.70;;;-2.40;99.90;;;;;;5037997;28;20277;-71
2024/01/11 09:42:44;;;;;;;58.97;26.05;;;-2.30;99.90;;;;;;5040580;28;20461;-71
2024/01/11 09:45:15;;;;;;;59.10;25.27;;;-2.20;99.90;;;;;;5036612;28;20104;-72
2024/01/11 09:47:42;;;;;;;57.03;26.15;;;-2.10;99.90;;;;;;5034271;28;20481;-72
2024/01/11 09:50:08;;;;;;;57.08;26.52;;;-2.00;99.90;;;;;;5038872;28;20025;-71
2024/01/11 09:52:34;;;;;;;61.67;24.30;;;-1.90;99.90;;;;;;5039482;28;20076;-71
2024/01/11 09:55:01;;;;;;;57.25;26.48;;;-1.80;99.90;;;;;;5036379;28;20044;-72
2024/01/11 09:57:29;;;;;;;53.80;26.73;;;-1.80;99.90;;;;;;5041097;28;20031;-70
2024/01/11 09:59:57;;;;;;;53.55;26.15;;;-1.60;99.90;;;;;;5040304;28;20036;-72
2024/01/11 10:02:29;;;;;;;54.80;24.20;;;-1.50;99.90;;;;;;5039788;28;20028;-71
2024/01/11 10:04:55;;;;;;;60.97;28.63;;;-1.40;99.90;;;;;;5034552;28;20029;-72
2024/01/11 10:07:23;;;;;;;59.50;26.50;;;-1.30;99.90;;;;;;5036496;28;20033;-72
2024/01/11 10:09:49;;;;;;;51.42;25.58;;;-1.20;99.90;;;;;;5036389;28;20021;-73
2024/01/11 10:12:17;;;;;;;61.63;29.80;;;-1.20;99.90;;;;;;5037536;28;20539;-72
2024/01/11 10:14:43;;;;;;;61.45;27.92;;;-1.10;99.90;;;;;;5036556;28;21472;-72
2024/01/11 10:17:08;;;;;;;56.75;27.75;;;-1.10;99.90;;;;;;5040631;28;20025;-72
2024/01/11 10:19:34;;;;;;;58.50;27.23;;;-1.00;99.90;;;;;;5034202;28;20534;-70
2024/01/11 10:22:00;;;;;;;57.30;26.75;;;-0.90;99.90;;;;;;5036119;28;20021;-71
2024/01/11 10:24:26;;;;;;;61.22;26.77;;;-0.80;99.90;;;;;;5038775;28;20048;-70
2024/01/11 10:26:55;;;;;;;54.53;26.40;;;-0.70;99.90;;;;;;5037995;28;20383;-69
2024/01/11 10:29:21;;;;;;;54.42;26.63;;;-0.70;99.90;;;;;;5035808;28;20592;-70
2024/01/11 10:31:47;;;;;;;54.67;26.50;;;-0.60;99.90;;;;;;5034588;28;20108;-71
2024/01/11 10:34:13;;;;;;;57.88;27.88;;;-0.40;99.90;;;;;;5036801;28;20257;-72
2024/01/11 10:36:40;;;;;;;61.65;24.45;;;-0.30;99.90;;;;;;5033093;28;20033;-70
2024/01/11 10:39:09;;;;;;;51.53;23.88;;;-0.30;99.90;;;;;;5036149;28;20406;-71
2024/01/11 10:41:41;;;;;;;50.33;23.73;;;-0.30;99.90;;;;;;5035015;28;20029;-71
2024/01/11 10:44:30;;;;;;;55.40;25.95;;;-0.20;99.90;;;;;;5038061;28;20138;-72
2024/01/11 10:46:57;;;;;;;49.67;23.95;;;-0.10;99.90;;;;;;5034942;28;20100;-71
2024/01/11 10:49:25;;;;;;;49.22;24.75;;;-0.10;99.90;;;;;;5034477;28;20021;-71
2024/01/11 10:52:00;;;;;;;48.95;25.30;;;-0.10;99.90;;;;;;5034300;28;20029;-71
2024/01/11 10:54:27;;;;;;;55.75;25.23;;;-0.10;99.90;;;;;;5033859;28;20469;-69
2024/01/11 10:56:54;;;;;;;52.63;25.10;;;-0.10;99.90;;;;;;5031113;28;20084;-71
2024/01/11 10:59:25;;;;;;;51.42;25.35;;;0.00;99.90;;;;;;5038247;28;20135;-71
2024/01/11 11:01:57;;;;;;;51.70;25.00;;;0.00;99.90;;;;;;5036562;28;20020;-71
2024/01/11 11:04:23;;;;;;;54.90;25.80;;;0.00;99.90;;;;;;5036567;28;20013;-70
2024/01/11 11:06:57;;;;;;;52.40;24.60;;;0.10;99.90;;;;;;5035034;28;20029;-72
2024/01/11 11:09:24;;;;;;;48.20;23.55;;;0.10;99.90;;;;;;5037415;28;20021;-70
2024/01/11 11:11:51;;;;;;;45.80;23.40;;;0.10;99.90;;;;;;5037355;28;20057;-71
2024/01/11 11:14:18;;;;;;;50.28;23.90;;;0.20;99.90;;;;;;5036674;28;20104;-71
2024/01/11 11:16:44;;;;;;;47.72;22.77;;;0.20;99.90;;;;;;5035840;28;20108;-72
2024/01/11 11:19:12;;;;;;;44.78;23.73;;;0.10;99.90;;;;;;5036771;28;20068;-71
2024/01/11 11:21:45;;;;;;;49.45;22.92;;;0.20;99.90;;;;;;5034002;28;20018;-70
2024/01/11 11:24:12;;;;;;;45.80;22.58;;;0.20;99.90;;;;;;5036456;28;20071;-71
2024/01/11 11:26:38;;;;;;;43.67;22.65;;;0.30;99.90;;;;;;5034775;28;20087;-70
2024/01/11 11:29:04;;;;;;;45.45;21.65;;;0.40;99.90;;;;;;5036774;28;20433;-71
2024/01/11 11:31:45;;;;;;;49.70;23.10;;;0.30;99.90;;;;;;5036938;28;20025;-71
2024/01/11 11:34:12;;;;;;;46.60;22.60;;;0.50;99.90;;;;;;5035045;28;20425;-71
2024/01/11 11:36:41;;;;;;;47.38;22.85;;;0.60;99.90;;;;;;5037397;28;20494;-70
2024/01/11 11:39:11;;;;;;;48.10;21.15;;;0.60;99.90;;;;;;5035454;28;20510;-70
2024/01/11 11:41:38;;;;;;;44.38;20.83;;;0.60;99.90;;;;;;5034398;28;20043;-71
2024/01/11 11:44:05;;;;;;;43.30;21.17;;;0.70;99.90;;;;;;5033883;28;20017;-71
2024/01/11 11:46:33;;;;;;;39.58;20.52;;;0.60;99.90;;;;;;5033809;28;20049;-71
2024/01/11 11:48:59;;;;;;;44.58;21.25;;;0.70;99.90;;;;;;5035415;28;20225;-70
2024/01/11 11:51:25;;;;;;;41.00;20.30;;;0.70;99.90;;;;;;5035123;28;20108;-71
2024/01/11 11:53:52;;;;;;;43.90;21.67;;;0.70;99.90;;;;;;5035376;28;20045;-70
2024/01/11 11:56:20;;;;;;;38.47;20.25;;;0.80;99.90;;;;;;5036139;28;22491;-70
2024/01/11 11:58:47;;;;;;;41.97;21.15;;;0.70;99.90;;;;;;5034347;28;20536;-70
2024/01/11 12:01:14;;;;;;;41.50;20.27;;;0.70;99.90;;;;;;5032263;28;20025;-71
2024/01/11 12:03:41;;;;;;;37.78;20.73;;;0.80;99.90;;;;;;5034891;28;20025;-72
2024/01/11 12:06:10;;;;;;;38.28;20.45;;;0.80;99.90;;;;;;5032205;28;20028;-72
2024/01/11 12:08:36;;;;;;;42.13;21.55;;;0.70;99.90;;;;;;5033969;28;20474;-72
2024/01/11 12:11:06;;;;;;;41.42;21.58;;;0.80;99.90;;;;;;5035414;28;20040;-72
2024/01/11 12:13:34;;;;;;;40.90;22.13;;;0.90;99.90;;;;;;5038176;28;20025;-71
2024/01/11 12:16:00;;;;;;;41.40;21.50;;;0.90;99.90;;;;;;5033430;28;20025;-73
2024/01/11 12:18:25;;;;;;;38.55;20.02;;;1.10;99.90;;;;;;5034911;28;20961;-72
2024/01/11 12:20:54;;;;;;;36.65;18.45;;;1.00;99.90;;;;;;5032603;28;20035;-72
2024/01/11 12:23:20;;;;;;;40.55;21.02;;;1.10;99.90;;;;;;5031048;28;20107;-71
2024/01/11 12:25:46;;;;;;;37.63;19.55;;;1.10;99.90;;;;;;5034202;28;20136;-72